Nathaniel B. Palmer — WBP3210 — position and weather

sailwx.info

Track history (hours):
 
Tides and Currents Weather Stations Pressure Air Temp Water Temp Dewpoint Dewpoint Depression Visibility Wind Speed Wind Dir Waves Ship Positions

Oceanographic research ship Nathaniel B. Palmer (USA)

Contact: Ethan Norris, ethan.norris.contractor@usap.gov

Detailed information on ship capabilities available from University of Delaware's Ocean Information Center and ARCUS's ALIAS (Arctic Logistics Information and Support) project.

Owner: OFFSHORE SERVICE VESSELS, GALLIANO, LA. More information available from US FCC via Universal Licensing System and Coast Guard Vessel Documentation Center.

Last reported at 2017-Oct-18 23:00 UTC. Time now 2017-Oct-19 00:17 UTC.
Position S 53°06' W 070°54'.

Type: Other ship. MMSI: 366610000.

Wind from 280 at 11 knots

Barometer 1006.3 mb
Air temperature 6.3 ° C
Water temperature 12.8 ° C

Date/timePositionNaut miles runAvg speedWind from/ knotsBaromVisibWave heightAir tempDewpointWater temp
2017-Oct-18 23:00S 53°06' W 070°54'0 0.0 280 / 111006.3 6.3 12.8
2017-Oct-18 22:00S 53°06' W 070°54'0 0.0 260 / 111005.9 6.6 12.8
2017-Oct-18 21:00S 53°06' W 070°54'0 0.0 260 / 141005.5 6.9 12.8
2017-Oct-18 20:00S 53°06' W 070°54'0 0.0 260 / 151005.1 6.7 12.8
2017-Oct-18 19:00S 53°06' W 070°54'0 0.0 230 / 171004.6 6.9 12.8
2017-Oct-18 18:00S 53°06' W 070°54'0 0.0 250 / 171004.4 6.5 12.8
2017-Oct-18 17:00S 53°06' W 070°54'0 0.0 240 / 161004.2 5.8 12.8
2017-Oct-18 16:00S 53°06' W 070°54'0 0.0 250 / 161004.2 5.4 12.8
2017-Oct-18 15:00S 53°06' W 070°54'0 0.0 250 / 191003.5 5.5 12.8
2017-Oct-18 14:00S 53°06' W 070°54'0 0.0 250 / 171003.3 4.4 12.8
2017-Oct-18 13:00S 53°06' W 070°54'0 0.0 260 / 161002.4 4.2 12.8
2017-Oct-18 12:00S 53°06' W 070°54'0 0.0 270 / 111001.9 3.8 12.8
2017-Oct-18 11:00S 53°06' W 070°54'0 0.0 260 / 121000.9 4.0 12.8
2017-Oct-18 10:00S 53°06' W 070°54'0 0.0 250 / 12999.8 3.8 12.8
2017-Oct-18 09:00S 53°06' W 070°54'0 0.0 250 / 13998.8 3.8 12.8
2017-Oct-18 08:00S 53°06' W 070°54'0 0.0 250 / 11998.0 4.0 12.8
2017-Oct-18 07:00S 53°06' W 070°54'0 0.0 260 / 13997.0 4.3 12.8
2017-Oct-18 06:00S 53°06' W 070°54'0 0.0 270 / 15996.0 4.7 12.8
2017-Oct-18 05:00S 53°06' W 070°54'0 0.0 270 / 16995.5 4.9 12.8
2017-Oct-18 04:00S 53°06' W 070°54'0 0.0 270 / 15994.5 5.2 12.8
2017-Oct-18 03:00S 53°06' W 070°54'0 0.0 260 / 19993.5 5.5 12.8
2017-Oct-18 02:00S 53°06' W 070°54'0 0.0 260 / 21992.6 6.0 12.8
2017-Oct-18 01:00S 53°06' W 070°54'0 0.0 260 / 6992.8 6.0 12.8
2017-Oct-18 00:00S 53°06' W 070°54'0 0.0 270 / 9992.2 6.1 12.8
2017-Oct-17 23:00S 53°06' W 070°54'0 0.0 270 / 9991.3 7.4 12.8
2017-Oct-17 22:00S 53°06' W 070°54'0 0.0 260 / 17989.8 7.4 12.8
2017-Oct-17 21:00S 53°06' W 070°54'0 0.0 270 / 23988.1 7.8 12.8
2017-Oct-17 20:00S 53°06' W 070°54'0 0.0 280 / 29986.3 8.0 12.8
2017-Oct-17 19:00S 53°06' W 070°54'0 0.0 280 / 36984.9 8.2 12.8
2017-Oct-17 18:00S 53°06' W 070°54'0 0.0 280 / 32984.4 8.5 12.8
2017-Oct-17 17:00S 53°06' W 070°54'0 0.0 290 / 33983.1 8.0 12.8
2017-Oct-17 16:00S 53°06' W 070°54'0 0.0 290 / 36982.1 7.6 12.8
2017-Oct-17 15:00S 53°06' W 070°54'0 0.0 300 / 35981.8 6.3 12.8
2017-Oct-17 14:00S 53°06' W 070°54'0 0.0 310 / 37981.4 6.5 12.8
2017-Oct-17 13:00S 53°06' W 070°54'0 0.0 300 / 27982.4 7.4 12.8
2017-Oct-17 12:00S 53°06' W 070°54'0 0.0 320 / 28982.0 7.4 12.8
2017-Oct-17 11:00S 53°06' W 070°54'0 0.0 310 / 19982.9 7.0 12.8
2017-Oct-17 10:00S 53°06' W 070°54'0 0.0 310 / 15983.3 6.7 12.8
2017-Oct-17 09:00S 53°06' W 070°54'0 0.0 310 / 12983.1 6.9 12.8
2017-Oct-17 08:00S 53°06' W 070°54'0 0.0 350 / 7983.1 6.6 12.8
2017-Oct-17 07:00S 53°06' W 070°54'0 0.0 030 / 3983.6 6.8 12.8
2017-Oct-17 06:00S 53°06' W 070°54'0 0.0 340 / 8984.0 7.0 12.8
2017-Oct-17 05:00S 53°06' W 070°54'0 0.0 360 / 6984.6 7.2 12.8
2017-Oct-17 04:00S 53°06' W 070°54'0 0.0 350 / 8984.6 7.8 12.8
2017-Oct-17 03:00S 53°06' W 070°54'0 0.0 340 / 11984.6 8.6 12.8
2017-Oct-17 02:00S 53°06' W 070°54'0 0.0 330 / 11984.8 8.6 12.8
2017-Oct-17 01:00S 53°06' W 070°54'0 0.0 320 / 10985.3 9.1 12.8
2017-Oct-17 00:00S 53°06' W 070°54'0 0.0 300 / 11985.2 9.8 12.8
2017-Oct-16 23:00S 53°06' W 070°54'0 0.0 300 / 12985.2 11.2 12.8
2017-Oct-16 22:00S 53°06' W 070°54'0 0.0 310 / 16985.0 11.8 12.8
2017-Oct-16 21:00S 53°06' W 070°54'0 0.0 300 / 16984.9 11.8 12.8
2017-Oct-16 20:00S 53°06' W 070°54'0 0.0 310 / 16984.8 11.9 12.8
2017-Oct-16 19:00S 53°06' W 070°54'0 0.0 300 / 13985.2 11.5 12.8
2017-Oct-16 18:00S 53°06' W 070°54'0 0.0 300 / 16985.3 11.1 12.8
2017-Oct-16 17:00S 53°06' W 070°54'0 0.0 310 / 19985.4 11.0 12.8
2017-Oct-16 16:00S 53°06' W 070°54'0 0.0 300 / 15985.3 10.4 12.8
2017-Oct-16 15:00S 53°06' W 070°54'0 0.0 280 / 15985.0 9.6 12.8
2017-Oct-16 14:00S 53°06' W 070°54'0 0.0 280 / 17985.1 9.2 12.8
2017-Oct-16 13:00S 53°06' W 070°54'0 0.0 290 / 17984.7 9.0 12.8
2017-Oct-16 12:00S 53°06' W 070°54'0 0.0 300 / 15984.2 8.2 12.8
2017-Oct-16 11:00S 53°06' W 070°54'0 0.0 300 / 15983.5 8.4 12.8
2017-Oct-16 10:00S 53°06' W 070°54'0 0.0 340 / 9982.1 8.7 12.8
2017-Oct-16 09:00S 53°06' W 070°54'0 0.0 982.6 8.5 12.8
2017-Oct-16 08:00S 53°06' W 070°54'0 0.0 360 / 9983.1 8.7 12.8
2017-Oct-16 07:00S 53°06' W 070°54'0 0.0 360 / 11983.6 9.3 12.8
2017-Oct-16 06:00S 53°06' W 070°54'0 0.0 350 / 14984.5 9.1 12.8
2017-Oct-16 05:00S 53°06' W 070°54'0 0.0 330 / 13985.2 9.6 12.8
2017-Oct-16 04:00S 53°06' W 070°54'0 0.0 320 / 17985.6 10.3 12.8
2017-Oct-16 03:00S 53°06' W 070°54'0 0.0 320 / 17986.2 10.4 12.8
2017-Oct-16 02:00S 53°06' W 070°54'0 0.0 330 / 14986.8 10.7 12.8
2017-Oct-16 01:00S 53°06' W 070°54'0 0.0 310 / 17987.1 11.2 12.8
2017-Oct-16 00:00S 53°06' W 070°54'0 0.0 310 / 12987.6 11.5 12.8
2017-Oct-15 23:00S 53°06' W 070°54'0 0.0 310 / 11988.1 12.3 12.8
2017-Oct-15 22:00S 53°06' W 070°54'0 0.0 300 / 9987.9 12.8 12.8
2017-Oct-15 21:00S 53°06' W 070°54'0 0.0 310 / 11988.1 12.9 12.8
2017-Oct-15 20:00S 53°06' W 070°54'0 0.0 310 / 13988.1 13.0 12.8
2017-Oct-15 19:00S 53°06' W 070°54'0 0.0 300 / 14988.6 12.3 12.8
2017-Oct-15 18:00S 53°06' W 070°54'0 0.0 290 / 10988.7 12.2 12.8
2017-Oct-15 17:00S 53°06' W 070°54'0 0.0 280 / 8988.9 11.0 12.8
2017-Oct-15 16:00S 53°06' W 070°54'0 0.0 270 / 11989.0 10.2 12.8
2017-Oct-15 15:00S 53°06' W 070°54'0 0.0 280 / 7989.2 10.1 12.8
2017-Oct-15 14:00S 53°06' W 070°54'0 0.0 290 / 18988.4 9.3 12.8
2017-Oct-15 13:00S 53°06' W 070°54'0 0.0 290 / 29986.6 9.0 12.8
2017-Oct-15 12:00S 53°06' W 070°54'0 0.0 290 / 35985.8 8.6 12.8
2017-Oct-15 11:00S 53°06' W 070°54'0 0.0 290 / 31985.9 8.6 12.8
2017-Oct-15 10:00S 53°06' W 070°54'0 0.0 290 / 23986.4 8.3 12.8
2017-Oct-15 09:00S 53°06' W 070°54'0 0.0 300 / 18986.6 7.5 12.8
2017-Oct-15 08:00S 53°06' W 070°54'0 0.0 300 / 17986.6 7.1 12.8
2017-Oct-15 07:00S 53°06' W 070°54'0 0.0 310 / 13986.9 6.2 12.8
2017-Oct-15 06:00S 53°06' W 070°54'0 0.0 330 / 12988.0 5.9 12.8
2017-Oct-15 05:00S 53°06' W 070°54'0 0.0 020 / 9989.3 5.5 12.8
2017-Oct-15 04:00S 53°06' W 070°54'0 0.0 030 / 10990.7 5.3 12.8
2017-Oct-15 03:00S 53°06' W 070°54'0 0.0 020 / 9992.1 5.8 12.8
2017-Oct-15 02:00S 53°06' W 070°54'0 0.0 030 / 8993.7 6.3 12.8
2017-Oct-15 01:00S 53°06' W 070°54'0 0.0 360 / 6995.3 7.3 12.8
2017-Oct-15 00:00S 53°06' W 070°54'0 0.0 320 / 5996.7 7.8 12.8
2017-Oct-14 23:00S 53°06' W 070°54'0 0.0 270 / 12997.7 8.0 12.8
2017-Oct-14 22:00S 53°06' W 070°54'0 0.0 280 / 14998.5 8.3 12.8
2017-Oct-14 21:00S 53°06' W 070°54'0 0.0 270 / 13999.3 8.8 12.8
2017-Oct-14 20:00S 53°06' W 070°54'0 0.0 260 / 13999.8 8.9 12.8
2017-Oct-14 19:00S 53°06' W 070°54'0 0.0 260 / 141000.4 8.1 12.8
2017-Oct-14 18:00S 53°06' W 070°54'0 0.0 260 / 171000.5 8.2 12.8
2017-Oct-14 17:00S 53°06' W 070°54'0 0.0 260 / 151000.7 7.8 12.8
2017-Oct-14 16:00S 53°06' W 070°54'0 0.0 260 / 131001.0 6.8 12.8
2017-Oct-14 15:00S 53°06' W 070°54'0 0.0 260 / 111001.5 5.9 12.8
2017-Oct-14 14:00S 53°06' W 070°54'0 0.0 260 / 91001.1 4.9 12.8
2017-Oct-14 13:00S 53°06' W 070°54'0 0.0 300 / 111000.6 4.8 12.8
2017-Oct-14 12:00S 53°06' W 070°54'0 0.0 270 / 12999.7 4.6 12.8
2017-Oct-14 11:00S 53°06' W 070°54'0 0.0 250 / 7998.9 4.0 12.8
2017-Oct-14 10:00S 53°06' W 070°54'0 0.0 270 / 6997.8 3.4 12.8
2017-Oct-14 09:00S 53°06' W 070°54'0 0.0 260 / 7996.5 3.4 12.8
2017-Oct-14 08:00S 53°06' W 070°54'0 0.0 250 / 12994.9 3.5 12.8
2017-Oct-14 07:00S 53°06' W 070°54'0 0.0 260 / 15993.1 2.9 12.8
2017-Oct-14 06:00S 53°06' W 070°54'0 0.0 260 / 17991.3 3.3 12.8
2017-Oct-14 05:00S 53°06' W 070°54'0 0.0 260 / 18989.4 4.0 12.8
2017-Oct-14 04:00S 53°06' W 070°54'0 0.0 260 / 16987.8 4.7 12.8
2017-Oct-14 03:00S 53°06' W 070°54'0 0.0 280 / 23986.2 5.2 12.8
2017-Oct-14 02:00S 53°06' W 070°54'0 0.0 270 / 18986.5 4.9 12.8
2017-Oct-14 01:00S 53°06' W 070°54'0 0.0 270 / 16986.2 5.3 12.8
2017-Oct-14 00:00S 53°06' W 070°54'0 0.0 270 / 18986.0 6.1 12.8
2017-Oct-13 23:00S 53°06' W 070°54'0 0.0 270 / 21984.5 7.1 12.8
2017-Oct-13 22:00S 53°06' W 070°54'0 0.0 270 / 27983.3 7.3 12.8
2017-Oct-13 21:00S 53°06' W 070°54'0 0.0 280 / 26982.3 7.9 12.8
2017-Oct-13 20:00S 53°06' W 070°54'0 0.0 290 / 27982.2 10.0 12.8
2017-Oct-13 19:00S 53°06' W 070°54'0 0.0 290 / 27982.5 11.2 12.8
2017-Oct-13 18:00S 53°06' W 070°54'0 0.0 290 / 30982.6 11.0 12.8
2017-Oct-13 17:00S 53°06' W 070°54'0 0.0 290 / 38982.3 10.3 12.8
2017-Oct-13 16:00S 53°06' W 070°54'0 0.0 290 / 41982.2 9.6 12.8
2017-Oct-13 15:00S 53°06' W 070°54'0 0.0 290 / 26983.9 10.0 12.8
2017-Oct-13 14:00S 53°06' W 070°54'0 0.0 290 / 17985.8 10.4 12.8
2017-Oct-13 13:00S 53°06' W 070°54'0 0.0 300 / 10987.1 10.3 12.8
2017-Oct-13 12:00S 53°06' W 070°54'0 0.0 320 / 5988.1 10.0 12.8
2017-Oct-13 11:00S 53°06' W 070°54'0 0.0 300 / 15989.1 10.3 12.8
2017-Oct-13 10:00S 53°06' W 070°54'0 0.0 330 / 11990.3 10.3 12.8
2017-Oct-13 09:00S 53°06' W 070°54'0 0.0 010 / 12992.1 8.7 12.8
2017-Oct-13 08:00S 53°06' W 070°54'0 0.0 030 / 14995.4 7.8 12.8
2017-Oct-13 07:00S 53°06' W 070°54'0 0.0 020 / 12998.3 8.8 12.8
2017-Oct-13 06:00S 53°06' W 070°54'0 0.0 040 / 121001.0 7.7 12.8
2017-Oct-13 05:00S 53°06' W 070°54'0 0.0 030 / 111003.3 7.0 12.8
2017-Oct-13 04:00S 53°06' W 070°54'0 0.0 010 / 51005.5 7.3 12.8
2017-Oct-13 03:00S 53°06' W 070°54'0 0.0 340 / 51007.4 7.1 12.8
2017-Oct-13 02:00S 53°06' W 070°54'0 0.0 010 / 51008.6 7.3 12.8
2017-Oct-13 01:00S 53°06' W 070°54'0 0.0 300 / 71009.7 7.6 12.8
2017-Oct-13 00:00S 53°06' W 070°54'0 0.0 270 / 131010.4 7.8 12.8
2017-Oct-12 23:00S 53°06' W 070°54'0 0.0 270 / 151010.3 8.8 12.8
2017-Oct-12 22:00S 53°06' W 070°54'0 0.0 260 / 131011.0 9.4 12.8
2017-Oct-12 21:00S 53°06' W 070°54'0 0.0 270 / 191011.4 9.4 12.8
2017-Oct-12 20:00S 53°06' W 070°54'0 0.0 270 / 231010.9 9.4 12.8
2017-Oct-12 19:00S 53°06' W 070°54'0 0.0 270 / 211011.1 9.3 12.8
2017-Oct-12 18:00S 53°06' W 070°54'0 0.0 270 / 201010.9 9.1 12.8
2017-Oct-12 17:00S 53°06' W 070°54'0 0.0 270 / 221010.7 8.8 12.8
2017-Oct-12 16:00S 53°06' W 070°54'0 0.0 270 / 231010.2 8.5 12.8
2017-Oct-12 15:00S 53°06' W 070°54'0 0.0 260 / 201010.2 8.0 12.8
2017-Oct-12 14:00S 53°06' W 070°54'0 0.0 270 / 201010.5 7.5 12.8
2017-Oct-12 13:00S 53°06' W 070°54'0 0.0 280 / 161010.6 7.4 12.8
2017-Oct-12 12:00S 53°06' W 070°54'7 7.0 290 / 131010.2 6.9 12.8
2017-Oct-12 11:00S 53°12' W 070°48'6 6.0 300 / 111009.6 6.5 12.8
2017-Oct-12 10:00S 53°18' W 070°48'6 6.0 270 / 121008.4 6.7 12.8
2017-Oct-12 09:00S 53°24' W 070°48'6 6.0 270 / 191007.5 6.9 12.8
2017-Oct-12 08:00S 53°30' W 070°48'6 6.0 260 / 171006.7 7.1 12.8
2017-Oct-12 07:00S 53°36' W 070°48'6 6.0 250 / 201006.4 7.4 12.8
2017-Oct-12 06:00S 53°42' W 070°48'7 7.0 250 / 241005.5 7.6 12.8
2017-Oct-12 05:00S 53°48' W 070°54'7 7.1 260 / 341004.4 9.3 12.8
2017-Oct-12 04:00S 53°48' W 071°06'7 7.1 270 / 381004.2 9.0 12.8
2017-Oct-12 03:00S 53°48' W 071°18'1110.6 290 / 331004.5 7.2 12.8
2017-Oct-12 02:00S 53°48' W 071°36'1212.2 300 / 321005.0 7.0 12.8
2017-Oct-12 01:00S 53°42' W 071°54'9 9.3 310 / 321006.0 7.2 12.8
2017-Oct-12 00:00S 53°36' W 072°06'9 9.3 330 / 231007.1 7.0 12.8
2017-Oct-11 23:00S 53°30' W 072°18'7 7.1 330 / 191008.7 7.1 12.8
2017-Oct-11 22:00S 53°30' W 072°30'1212.3 310 / 311010.5 6.8 12.8
2017-Oct-11 21:00S 53°24' W 072°48'9 9.3 310 / 371012.2 6.8 12.8
2017-Oct-11 20:00S 53°18' W 073°00'1212.3 320 / 331014.4 8.2 12.8
2017-Oct-11 19:00S 53°12' W 073°18'1414.0 320 / 291016.2 6.3 12.8
2017-Oct-11 18:00S 53°00' W 073°30'9 9.4 320 / 281017.4 6.3 12.8
2017-Oct-11 17:00S 52°54' W 073°42'7 7.0 300 / 221018.4 6.2 12.8
2017-Oct-11 16:00S 52°48' W 073°48'7 7.0 290 / 211018.9 5.8 12.8
2017-Oct-11 15:00S 52°42' W 073°42'0 0.0 290 / 171019.4 6.6 12.8
2017-Oct-11 14:00S 52°42' W 073°42'6 6.0 290 / 131019.9 6.4 12.8
2017-Oct-11 13:00S 52°36' W 073°42'7 7.0 280 / 151020.0 6.5 12.8
2017-Oct-11 12:00S 52°30' W 073°36'1212.0 280 / 111020.1 6.2 12.8
2017-Oct-11 11:00S 52°18' W 073°36'0 0.0 310 / 171019.6 5.8 12.8
2017-Oct-11 10:00S 52°18' W 073°36'6 6.0 320 / 251019.5 5.6 12.8
2017-Oct-11 09:00S 52°12' W 073°36'7 7.0 320 / 201019.8 5.5 12.8
2017-Oct-11 08:00S 52°06' W 073°42'1312.6 320 / 271020.6 5.2 12.8
2017-Oct-11 07:00S 51°54' W 073°36'7 7.1 330 / 221021.3 5.6 12.8
2017-Oct-11 06:00S 51°48' W 073°42'10 9.5 320 / 211022.3 6.0 12.8
2017-Oct-11 05:00S 51°42' W 073°54'1212.0 330 / 251023.2 6.1 12.8
2017-Oct-11 04:00S 51°30' W 073°54'7 7.1 320 / 181024.4 5.7 12.8
2017-Oct-11 03:00S 51°24' W 074°00'1312.6 320 / 151025.1 5.7 12.8
2017-Oct-11 02:00S 51°12' W 074°06'1312.6 310 / 141025.3 6.1 12.8
2017-Oct-11 01:00S 51°00' W 074°12'6 6.0 290 / 131025.4 6.7 12.8
2017-Oct-11 00:00S 50°54' W 074°12'1414.2 300 / 101025.4 7.3 12.8
2017-Oct-10 23:00S 50°42' W 074°24'10 9.7 320 / 141025.4 8.0 12.8
2017-Oct-10 22:00S 50°36' W 074°36'7 7.1 300 / 131025.2 7.7 12.8
2017-Oct-10 21:00S 50°30' W 074°42'1312.6 260 / 101025.1 7.0 12.8
2017-Oct-10 20:00S 50°18' W 074°48'7 7.1 230 / 81025.2 7.0 12.8
2017-Oct-10 19:00S 50°12' W 074°42'1312.6 200 / 91025.0 7.5 12.8
2017-Oct-10 18:00S 50°00' W 074°36'10 9.8 220 / 121024.3 7.4 12.8
2017-Oct-10 17:00S 49°54' W 074°24'7 7.1 200 / 111023.9 7.2 12.8
2017-Oct-10 16:00S 49°48' W 074°18'1212.0 170 / 111023.3 6.6 12.8
2017-Oct-10 15:00S 49°36' W 074°18'7 7.2 160 / 171022.5 6.6 12.8
2017-Oct-10 14:00S 49°30' W 074°24'1312.6 180 / 81021.8 6.4 12.8
2017-Oct-10 13:00S 49°18' W 074°18'6 6.0 180 / 101020.9 5.8 12.8
2017-Oct-10 12:00S 49°12' W 074°18'1312.6 170 / 121019.9 5.8 12.8
2017-Oct-10 11:00S 49°00' W 074°24'1212.0 180 / 101019.0 5.7 12.8
2017-Oct-10 10:00S 48°48' W 074°24'6 6.0 170 / 101017.7 5.7 12.8
2017-Oct-10 09:00S 48°42' W 074°24'6 6.0 190 / 181016.7 6.0 12.8
2017-Oct-10 08:00S 48°36' W 074°24'6 6.0 150 / 111015.9 5.4 12.8
2017-Oct-10 07:00S 48°30' W 074°24'6 6.0 140 / 121015.4 5.4 12.8
2017-Oct-10 06:00S 48°24' W 074°24'7 7.2 140 / 81015.0 5.7 12.8
2017-Oct-10 05:00S 48°18' W 074°30'6 6.0 140 / 51014.6 5.9 12.8
2017-Oct-10 04:00S 48°12' W 074°30'7 7.2 010 / 71014.0 6.9 12.8
2017-Oct-10 03:00S 48°06' W 074°36'6 6.0 340 / 111013.5 6.7 12.8
2017-Oct-10 02:00S 48°00' W 074°36'6 6.0 020 / 101013.2 6.9 12.8
2017-Oct-10 01:00S 47°54' W 074°36'7 7.2 010 / 91013.0 7.2 12.8
2017-Oct-10 00:00S 47°48' W 074°42'6 6.0 020 / 161012.7 7.4 12.8
2017-Oct-09 23:00S 47°42' W 074°42'7 7.2 010 / 141012.6 7.7 12.8
2017-Oct-09 22:00S 47°36' W 074°48'1414.5 320 / 121012.4 7.7 12.8
2017-Oct-09 21:00S 47°24' W 075°00'7 7.2 290 / 121012.1 7.3 12.8
2017-Oct-09 20:00S 47°18' W 075°06'1010.1 280 / 161012.1 7.1 12.8
2017-Oct-09 19:00S 47°12' W 075°18'1312.7 300 / 111012.2 8.0 12.8
2017-Oct-09 18:00S 47°00' W 075°24'7 7.3 270 / 111012.5 7.7 12.8
2017-Oct-09 17:00S 46°54' W 075°30'7 7.3 290 / 151012.8 8.3 12.8
2017-Oct-09 16:00S 46°48' W 075°36'1212.0 290 / 101013.6 7.5 12.8
2017-Oct-09 15:00S 46°36' W 075°36'6 6.0 270 / 111013.8 7.6 12.8
2017-Oct-09 14:00S 46°30' W 075°36'7 7.3 250 / 161013.8 7.1 12.8
2017-Oct-09 13:00S 46°24' W 075°30'1312.7 260 / 211013.6 8.0 12.8
2017-Oct-09 12:00S 46°12' W 075°24'7 7.3 270 / 191013.8 8.5 12.8
2017-Oct-09 11:00S 46°06' W 075°18'7 7.3 260 / 191013.7 8.4 12.8
2017-Oct-09 10:00S 46°00' W 075°12'7 7.3 260 / 191013.7 7.8 12.8
2017-Oct-09 09:00S 45°54' W 075°06'7 7.3 250 / 221013.7 8.3 12.8
2017-Oct-09 08:00S 45°48' W 075°00'8 8.4 250 / 271013.5 8.2 12.8
2017-Oct-09 07:00S 45°48' W 074°48'1312.5 270 / 231013.3 8.2 12.8
2017-Oct-09 06:00S 45°48' W 074°30'1010.3 250 / 191013.3 7.6 12.8
2017-Oct-09 05:00S 45°42' W 074°18'4 4.2 300 / 81013.3 7.1 12.8
2017-Oct-09 04:00S 45°42' W 074°12'1312.7 300 / 61013.6 6.5 12.8
2017-Oct-09 03:00S 45°30' W 074°06'7 7.3 280 / 41013.6 7.3 12.8
2017-Oct-09 02:00S 45°24' W 074°12'8 8.4 260 / 91013.7 7.5 12.8
2017-Oct-09 01:00S 45°24' W 074°00'1312.6 270 / 61013.4 6.8 12.8
2017-Oct-09 00:00S 45°24' W 073°42'1312.7 080 / 41013.2 6.2 12.8
2017-Oct-08 23:00S 45°12' W 073°36'   070 / 61012.7 6.5 12.8
Track history (hours):
 
Tides and Currents Weather Stations Pressure Air Temp Water Temp Dewpoint Dewpoint Depression Visibility Wind Speed Wind Dir Waves Ship Positions

Oceanographic research ship Nathaniel B. Palmer (USA)

Contact: Ethan Norris, ethan.norris.contractor@usap.gov

Detailed information on ship capabilities available from University of Delaware's Ocean Information Center and ARCUS's ALIAS (Arctic Logistics Information and Support) project.

Owner: OFFSHORE SERVICE VESSELS, GALLIANO, LA. More information available from US FCC via Universal Licensing System and Coast Guard Vessel Documentation Center.

Last reported at 2017-Oct-18 23:00 UTC. Time now 2017-Oct-19 00:17 UTC.
Position S 53°06' W 070°54'.

Type: Other ship. MMSI: 366610000.

Wind from 280 at 11 knots

Barometer 1006.3 mb
Air temperature 6.3 ° C
Water temperature 12.8 ° C

Date/timePositionNaut miles runAvg speedWind from/ knotsBaromVisibWave heightAir tempDewpointWater temp
2017-Oct-18 23:00S 53°06' W 070°54'0 0.0 280 / 111006.3 6.3 12.8
2017-Oct-18 22:00S 53°06' W 070°54'0 0.0 260 / 111005.9 6.6 12.8
2017-Oct-18 21:00S 53°06' W 070°54'0 0.0 260 / 141005.5 6.9 12.8
2017-Oct-18 20:00S 53°06' W 070°54'0 0.0 260 / 151005.1 6.7 12.8
2017-Oct-18 19:00S 53°06' W 070°54'0 0.0 230 / 171004.6 6.9 12.8
2017-Oct-18 18:00S 53°06' W 070°54'0 0.0 250 / 171004.4 6.5 12.8
2017-Oct-18 17:00S 53°06' W 070°54'0 0.0 240 / 161004.2 5.8 12.8
2017-Oct-18 16:00S 53°06' W 070°54'0 0.0 250 / 161004.2 5.4 12.8
2017-Oct-18 15:00S 53°06' W 070°54'0 0.0 250 / 191003.5 5.5 12.8
2017-Oct-18 14:00S 53°06' W 070°54'0 0.0 250 / 171003.3 4.4 12.8
2017-Oct-18 13:00S 53°06' W 070°54'0 0.0 260 / 161002.4 4.2 12.8
2017-Oct-18 12:00S 53°06' W 070°54'0 0.0 270 / 111001.9 3.8 12.8
2017-Oct-18 11:00S 53°06' W 070°54'0 0.0 260 / 121000.9 4.0 12.8
2017-Oct-18 10:00S 53°06' W 070°54'0 0.0 250 / 12999.8 3.8 12.8
2017-Oct-18 09:00S 53°06' W 070°54'0 0.0 250 / 13998.8 3.8 12.8
2017-Oct-18 08:00S 53°06' W 070°54'0 0.0 250 / 11998.0 4.0 12.8
2017-Oct-18 07:00S 53°06' W 070°54'0 0.0 260 / 13997.0 4.3 12.8
2017-Oct-18 06:00S 53°06' W 070°54'0 0.0 270 / 15996.0 4.7 12.8
2017-Oct-18 05:00S 53°06' W 070°54'0 0.0 270 / 16995.5 4.9 12.8
2017-Oct-18 04:00S 53°06' W 070°54'0 0.0 270 / 15994.5 5.2 12.8
2017-Oct-18 03:00S 53°06' W 070°54'0 0.0 260 / 19993.5 5.5 12.8
2017-Oct-18 02:00S 53°06' W 070°54'0 0.0 260 / 21992.6 6.0 12.8
2017-Oct-18 01:00S 53°06' W 070°54'0 0.0 260 / 6992.8 6.0 12.8
2017-Oct-18 00:00S 53°06' W 070°54'0 0.0 270 / 9992.2 6.1 12.8
2017-Oct-17 23:00S 53°06' W 070°54'0 0.0 270 / 9991.3 7.4 12.8
2017-Oct-17 22:00S 53°06' W 070°54'0 0.0 260 / 17989.8 7.4 12.8
2017-Oct-17 21:00S 53°06' W 070°54'0 0.0 270 / 23988.1 7.8 12.8
2017-Oct-17 20:00S 53°06' W 070°54'0 0.0 280 / 29986.3 8.0 12.8
2017-Oct-17 19:00S 53°06' W 070°54'0 0.0 280 / 36984.9 8.2 12.8
2017-Oct-17 18:00S 53°06' W 070°54'0 0.0 280 / 32984.4 8.5 12.8
2017-Oct-17 17:00S 53°06' W 070°54'0 0.0 290 / 33983.1 8.0 12.8
2017-Oct-17 16:00S 53°06' W 070°54'0 0.0 290 / 36982.1 7.6 12.8
2017-Oct-17 15:00S 53°06' W 070°54'0 0.0 300 / 35981.8 6.3 12.8
2017-Oct-17 14:00S 53°06' W 070°54'0 0.0 310 / 37981.4 6.5 12.8
2017-Oct-17 13:00S 53°06' W 070°54'0 0.0 300 / 27982.4 7.4 12.8
2017-Oct-17 12:00S 53°06' W 070°54'0 0.0 320 / 28982.0 7.4 12.8
2017-Oct-17 11:00S 53°06' W 070°54'0 0.0 310 / 19982.9 7.0 12.8
2017-Oct-17 10:00S 53°06' W 070°54'0 0.0 310 / 15983.3 6.7 12.8
2017-Oct-17 09:00S 53°06' W 070°54'0 0.0 310 / 12983.1 6.9 12.8
2017-Oct-17 08:00S 53°06' W 070°54'0 0.0 350 / 7983.1 6.6 12.8
2017-Oct-17 07:00S 53°06' W 070°54'0 0.0 030 / 3983.6 6.8 12.8
2017-Oct-17 06:00S 53°06' W 070°54'0 0.0 340 / 8984.0 7.0 12.8
2017-Oct-17 05:00S 53°06' W 070°54'0 0.0 360 / 6984.6 7.2 12.8
2017-Oct-17 04:00S 53°06' W 070°54'0 0.0 350 / 8984.6 7.8 12.8
2017-Oct-17 03:00S 53°06' W 070°54'0 0.0 340 / 11984.6 8.6 12.8
2017-Oct-17 02:00S 53°06' W 070°54'0 0.0 330 / 11984.8 8.6 12.8
2017-Oct-17 01:00S 53°06' W 070°54'0 0.0 320 / 10985.3 9.1 12.8
2017-Oct-17 00:00S 53°06' W 070°54'0 0.0 300 / 11985.2 9.8 12.8
2017-Oct-16 23:00S 53°06' W 070°54'0 0.0 300 / 12985.2 11.2 12.8
2017-Oct-16 22:00S 53°06' W 070°54'0 0.0 310 / 16985.0 11.8 12.8
2017-Oct-16 21:00S 53°06' W 070°54'0 0.0 300 / 16984.9 11.8 12.8
2017-Oct-16 20:00S 53°06' W 070°54'0 0.0 310 / 16984.8 11.9 12.8
2017-Oct-16 19:00S 53°06' W 070°54'0 0.0 300 / 13985.2 11.5 12.8
2017-Oct-16 18:00S 53°06' W 070°54'0 0.0 300 / 16985.3 11.1 12.8
2017-Oct-16 17:00S 53°06' W 070°54'0 0.0 310 / 19985.4 11.0 12.8
2017-Oct-16 16:00S 53°06' W 070°54'0 0.0 300 / 15985.3 10.4 12.8
2017-Oct-16 15:00S 53°06' W 070°54'0 0.0 280 / 15985.0 9.6 12.8
2017-Oct-16 14:00S 53°06' W 070°54'0 0.0 280 / 17985.1 9.2 12.8
2017-Oct-16 13:00S 53°06' W 070°54'0 0.0 290 / 17984.7 9.0 12.8
2017-Oct-16 12:00S 53°06' W 070°54'0 0.0 300 / 15984.2 8.2 12.8
2017-Oct-16 11:00S 53°06' W 070°54'0 0.0 300 / 15983.5 8.4 12.8
2017-Oct-16 10:00S 53°06' W 070°54'0 0.0 340 / 9982.1 8.7 12.8
2017-Oct-16 09:00S 53°06' W 070°54'0 0.0 982.6 8.5 12.8
2017-Oct-16 08:00S 53°06' W 070°54'0 0.0 360 / 9983.1 8.7 12.8
2017-Oct-16 07:00S 53°06' W 070°54'0 0.0 360 / 11983.6 9.3 12.8
2017-Oct-16 06:00S 53°06' W 070°54'0 0.0 350 / 14984.5 9.1 12.8
2017-Oct-16 05:00S 53°06' W 070°54'0 0.0 330 / 13985.2 9.6 12.8
2017-Oct-16 04:00S 53°06' W 070°54'0 0.0 320 / 17985.6 10.3 12.8
2017-Oct-16 03:00S 53°06' W 070°54'0 0.0 320 / 17986.2 10.4 12.8
2017-Oct-16 02:00S 53°06' W 070°54'0 0.0 330 / 14986.8 10.7 12.8
2017-Oct-16 01:00S 53°06' W 070°54'0 0.0 310 / 17987.1 11.2 12.8
2017-Oct-16 00:00S 53°06' W 070°54'0 0.0 310 / 12987.6 11.5 12.8
2017-Oct-15 23:00S 53°06' W 070°54'0 0.0 310 / 11988.1 12.3 12.8
2017-Oct-15 22:00S 53°06' W 070°54'0 0.0 300 / 9987.9 12.8 12.8
2017-Oct-15 21:00S 53°06' W 070°54'0 0.0 310 / 11988.1 12.9 12.8
2017-Oct-15 20:00S 53°06' W 070°54'0 0.0 310 / 13988.1 13.0 12.8
2017-Oct-15 19:00S 53°06' W 070°54'0 0.0 300 / 14988.6 12.3 12.8
2017-Oct-15 18:00S 53°06' W 070°54'0 0.0 290 / 10988.7 12.2 12.8
2017-Oct-15 17:00S 53°06' W 070°54'0 0.0 280 / 8988.9 11.0 12.8
2017-Oct-15 16:00S 53°06' W 070°54'0 0.0 270 / 11989.0 10.2 12.8
2017-Oct-15 15:00S 53°06' W 070°54'0 0.0 280 / 7989.2 10.1 12.8
2017-Oct-15 14:00S 53°06' W 070°54'0 0.0 290 / 18988.4 9.3 12.8
2017-Oct-15 13:00S 53°06' W 070°54'0 0.0 290 / 29986.6 9.0 12.8
2017-Oct-15 12:00S 53°06' W 070°54'0 0.0 290 / 35985.8 8.6 12.8
2017-Oct-15 11:00S 53°06' W 070°54'0 0.0 290 / 31985.9 8.6 12.8
2017-Oct-15 10:00S 53°06' W 070°54'0 0.0 290 / 23986.4 8.3 12.8
2017-Oct-15 09:00S 53°06' W 070°54'0 0.0 300 / 18986.6 7.5 12.8
2017-Oct-15 08:00S 53°06' W 070°54'0 0.0 300 / 17986.6 7.1 12.8
2017-Oct-15 07:00S 53°06' W 070°54'0 0.0 310 / 13986.9 6.2 12.8
2017-Oct-15 06:00S 53°06' W 070°54'0 0.0 330 / 12988.0 5.9 12.8
2017-Oct-15 05:00S 53°06' W 070°54'0 0.0 020 / 9989.3 5.5 12.8
2017-Oct-15 04:00S 53°06' W 070°54'0 0.0 030 / 10990.7 5.3 12.8
2017-Oct-15 03:00S 53°06' W 070°54'0 0.0 020 / 9992.1 5.8 12.8
2017-Oct-15 02:00S 53°06' W 070°54'0 0.0 030 / 8993.7 6.3 12.8
2017-Oct-15 01:00S 53°06' W 070°54'0 0.0 360 / 6995.3 7.3 12.8
2017-Oct-15 00:00S 53°06' W 070°54'0 0.0 320 / 5996.7 7.8 12.8
2017-Oct-14 23:00S 53°06' W 070°54'0 0.0 270 / 12997.7 8.0 12.8
2017-Oct-14 22:00S 53°06' W 070°54'0 0.0 280 / 14998.5 8.3 12.8
2017-Oct-14 21:00S 53°06' W 070°54'0 0.0 270 / 13999.3 8.8 12.8
2017-Oct-14 20:00S 53°06' W 070°54'0 0.0 260 / 13999.8 8.9 12.8
2017-Oct-14 19:00S 53°06' W 070°54'0 0.0 260 / 141000.4 8.1 12.8
2017-Oct-14 18:00S 53°06' W 070°54'0 0.0 260 / 171000.5 8.2 12.8
2017-Oct-14 17:00S 53°06' W 070°54'0 0.0 260 / 151000.7 7.8 12.8
2017-Oct-14 16:00S 53°06' W 070°54'0 0.0 260 / 131001.0 6.8 12.8
2017-Oct-14 15:00S 53°06' W 070°54'0 0.0 260 / 111001.5 5.9 12.8
2017-Oct-14 14:00S 53°06' W 070°54'0 0.0 260 / 91001.1 4.9 12.8
2017-Oct-14 13:00S 53°06' W 070°54'0 0.0 300 / 111000.6 4.8 12.8
2017-Oct-14 12:00S 53°06' W 070°54'0 0.0 270 / 12999.7 4.6 12.8
2017-Oct-14 11:00S 53°06' W 070°54'0 0.0 250 / 7998.9 4.0 12.8
2017-Oct-14 10:00S 53°06' W 070°54'0 0.0 270 / 6997.8 3.4 12.8
2017-Oct-14 09:00S 53°06' W 070°54'0 0.0 260 / 7996.5 3.4 12.8
2017-Oct-14 08:00S 53°06' W 070°54'0 0.0 250 / 12994.9 3.5 12.8
2017-Oct-14 07:00S 53°06' W 070°54'0 0.0 260 / 15993.1 2.9 12.8
2017-Oct-14 06:00S 53°06' W 070°54'0 0.0 260 / 17991.3 3.3 12.8
2017-Oct-14 05:00S 53°06' W 070°54'0 0.0 260 / 18989.4 4.0 12.8
2017-Oct-14 04:00S 53°06' W 070°54'0 0.0 260 / 16987.8 4.7 12.8
2017-Oct-14 03:00S 53°06' W 070°54'0 0.0 280 / 23986.2 5.2 12.8
2017-Oct-14 02:00S 53°06' W 070°54'0 0.0 270 / 18986.5 4.9 12.8
2017-Oct-14 01:00S 53°06' W 070°54'0 0.0 270 / 16986.2 5.3 12.8
2017-Oct-14 00:00S 53°06' W 070°54'0 0.0 270 / 18986.0 6.1 12.8
2017-Oct-13 23:00S 53°06' W 070°54'0 0.0 270 / 21984.5 7.1 12.8
2017-Oct-13 22:00S 53°06' W 070°54'0 0.0 270 / 27983.3 7.3 12.8
2017-Oct-13 21:00S 53°06' W 070°54'0 0.0 280 / 26982.3 7.9 12.8
2017-Oct-13 20:00S 53°06' W 070°54'0 0.0 290 / 27982.2 10.0 12.8
2017-Oct-13 19:00S 53°06' W 070°54'0 0.0 290 / 27982.5 11.2 12.8
2017-Oct-13 18:00S 53°06' W 070°54'0 0.0 290 / 30982.6 11.0 12.8
2017-Oct-13 17:00S 53°06' W 070°54'0 0.0 290 / 38982.3 10.3 12.8
2017-Oct-13 16:00S 53°06' W 070°54'0 0.0 290 / 41982.2 9.6 12.8
2017-Oct-13 15:00S 53°06' W 070°54'0 0.0 290 / 26983.9 10.0 12.8
2017-Oct-13 14:00S 53°06' W 070°54'0 0.0 290 / 17985.8 10.4 12.8
2017-Oct-13 13:00S 53°06' W 070°54'0 0.0 300 / 10987.1 10.3 12.8
2017-Oct-13 12:00S 53°06' W 070°54'0 0.0 320 / 5988.1 10.0 12.8
2017-Oct-13 11:00S 53°06' W 070°54'0 0.0 300 / 15989.1 10.3 12.8
2017-Oct-13 10:00S 53°06' W 070°54'0 0.0 330 / 11990.3 10.3 12.8
2017-Oct-13 09:00S 53°06' W 070°54'0 0.0 010 / 12992.1 8.7 12.8
2017-Oct-13 08:00S 53°06' W 070°54'0 0.0 030 / 14995.4 7.8 12.8
2017-Oct-13 07:00S 53°06' W 070°54'0 0.0 020 / 12998.3 8.8 12.8
2017-Oct-13 06:00S 53°06' W 070°54'0 0.0 040 / 121001.0 7.7 12.8
2017-Oct-13 05:00S 53°06' W 070°54'0 0.0 030 / 111003.3 7.0 12.8
2017-Oct-13 04:00S 53°06' W 070°54'0 0.0 010 / 51005.5 7.3 12.8
2017-Oct-13 03:00S 53°06' W 070°54'0 0.0 340 / 51007.4 7.1 12.8
2017-Oct-13 02:00S 53°06' W 070°54'0 0.0 010 / 51008.6 7.3 12.8
2017-Oct-13 01:00S 53°06' W 070°54'0 0.0 300 / 71009.7 7.6 12.8
2017-Oct-13 00:00S 53°06' W 070°54'0 0.0 270 / 131010.4 7.8 12.8
2017-Oct-12 23:00S 53°06' W 070°54'0 0.0 270 / 151010.3 8.8 12.8
2017-Oct-12 22:00S 53°06' W 070°54'0 0.0 260 / 131011.0 9.4 12.8
2017-Oct-12 21:00S 53°06' W 070°54'0 0.0 270 / 191011.4 9.4 12.8
2017-Oct-12 20:00S 53°06' W 070°54'0 0.0 270 / 231010.9 9.4 12.8
2017-Oct-12 19:00S 53°06' W 070°54'0 0.0 270 / 211011.1 9.3 12.8
2017-Oct-12 18:00S 53°06' W 070°54'0 0.0 270 / 201010.9 9.1 12.8
2017-Oct-12 17:00S 53°06' W 070°54'0 0.0 270 / 221010.7 8.8 12.8
2017-Oct-12 16:00S 53°06' W 070°54'0 0.0 270 / 231010.2 8.5 12.8
2017-Oct-12 15:00S 53°06' W 070°54'0 0.0 260 / 201010.2 8.0 12.8
2017-Oct-12 14:00S 53°06' W 070°54'0 0.0 270 / 201010.5 7.5 12.8
2017-Oct-12 13:00S 53°06' W 070°54'0 0.0 280 / 161010.6 7.4 12.8
2017-Oct-12 12:00S 53°06' W 070°54'7 7.0 290 / 131010.2 6.9 12.8
2017-Oct-12 11:00S 53°12' W 070°48'6 6.0 300 / 111009.6 6.5 12.8
2017-Oct-12 10:00S 53°18' W 070°48'6 6.0 270 / 121008.4 6.7 12.8
2017-Oct-12 09:00S 53°24' W 070°48'6 6.0 270 / 191007.5 6.9 12.8
2017-Oct-12 08:00S 53°30' W 070°48'6 6.0 260 / 171006.7 7.1 12.8
2017-Oct-12 07:00S 53°36' W 070°48'6 6.0 250 / 201006.4 7.4 12.8
2017-Oct-12 06:00S 53°42' W 070°48'7 7.0 250 / 241005.5 7.6 12.8
2017-Oct-12 05:00S 53°48' W 070°54'7 7.1 260 / 341004.4 9.3 12.8
2017-Oct-12 04:00S 53°48' W 071°06'7 7.1 270 / 381004.2 9.0 12.8
2017-Oct-12 03:00S 53°48' W 071°18'1110.6 290 / 331004.5 7.2 12.8
2017-Oct-12 02:00S 53°48' W 071°36'1212.2 300 / 321005.0 7.0 12.8
2017-Oct-12 01:00S 53°42' W 071°54'9 9.3 310 / 321006.0 7.2 12.8
2017-Oct-12 00:00S 53°36' W 072°06'9 9.3 330 / 231007.1 7.0 12.8
2017-Oct-11 23:00S 53°30' W 072°18'7 7.1 330 / 191008.7 7.1 12.8
2017-Oct-11 22:00S 53°30' W 072°30'1212.3 310 / 311010.5 6.8 12.8
2017-Oct-11 21:00S 53°24' W 072°48'9 9.3 310 / 371012.2 6.8 12.8
2017-Oct-11 20:00S 53°18' W 073°00'1212.3 320 / 331014.4 8.2 12.8
2017-Oct-11 19:00S 53°12' W 073°18'1414.0 320 / 291016.2 6.3 12.8
2017-Oct-11 18:00S 53°00' W 073°30'9 9.4 320 / 281017.4 6.3 12.8
2017-Oct-11 17:00S 52°54' W 073°42'7 7.0 300 / 221018.4 6.2 12.8
2017-Oct-11 16:00S 52°48' W 073°48'7 7.0 290 / 211018.9 5.8 12.8
2017-Oct-11 15:00S 52°42' W 073°42'0 0.0 290 / 171019.4 6.6 12.8
2017-Oct-11 14:00S 52°42' W 073°42'6 6.0 290 / 131019.9 6.4 12.8
2017-Oct-11 13:00S 52°36' W 073°42'7 7.0 280 / 151020.0 6.5 12.8
2017-Oct-11 12:00S 52°30' W 073°36'1212.0 280 / 111020.1 6.2 12.8
2017-Oct-11 11:00S 52°18' W 073°36'0 0.0 310 / 171019.6 5.8 12.8
2017-Oct-11 10:00S 52°18' W 073°36'6 6.0 320 / 251019.5 5.6 12.8
2017-Oct-11 09:00S 52°12' W 073°36'7 7.0 320 / 201019.8 5.5 12.8
2017-Oct-11 08:00S 52°06' W 073°42'1312.6 320 / 271020.6 5.2 12.8
2017-Oct-11 07:00S 51°54' W 073°36'7 7.1 330 / 221021.3 5.6 12.8
2017-Oct-11 06:00S 51°48' W 073°42'10 9.5 320 / 211022.3 6.0 12.8
2017-Oct-11 05:00S 51°42' W 073°54'1212.0 330 / 251023.2 6.1 12.8
2017-Oct-11 04:00S 51°30' W 073°54'7 7.1 320 / 181024.4 5.7 12.8
2017-Oct-11 03:00S 51°24' W 074°00'1312.6 320 / 151025.1 5.7 12.8
2017-Oct-11 02:00S 51°12' W 074°06'1312.6 310 / 141025.3 6.1 12.8
2017-Oct-11 01:00S 51°00' W 074°12'6 6.0 290 / 131025.4 6.7 12.8
2017-Oct-11 00:00S 50°54' W 074°12'1414.2 300 / 101025.4 7.3 12.8
2017-Oct-10 23:00S 50°42' W 074°24'10 9.7 320 / 141025.4 8.0 12.8
2017-Oct-10 22:00S 50°36' W 074°36'7 7.1 300 / 131025.2 7.7 12.8
2017-Oct-10 21:00S 50°30' W 074°42'1312.6 260 / 101025.1 7.0 12.8
2017-Oct-10 20:00S 50°18' W 074°48'7 7.1 230 / 81025.2 7.0 12.8
2017-Oct-10 19:00S 50°12' W 074°42'1312.6 200 / 91025.0 7.5 12.8
2017-Oct-10 18:00S 50°00' W 074°36'10 9.8 220 / 121024.3 7.4 12.8
2017-Oct-10 17:00S 49°54' W 074°24'7 7.1 200 / 111023.9 7.2 12.8
2017-Oct-10 16:00S 49°48' W 074°18'1212.0 170 / 111023.3 6.6 12.8
2017-Oct-10 15:00S 49°36' W 074°18'7 7.2 160 / 171022.5 6.6 12.8
2017-Oct-10 14:00S 49°30' W 074°24'1312.6 180 / 81021.8 6.4 12.8
2017-Oct-10 13:00S 49°18' W 074°18'6 6.0 180 / 101020.9 5.8 12.8
2017-Oct-10 12:00S 49°12' W 074°18'1312.6 170 / 121019.9 5.8 12.8
2017-Oct-10 11:00S 49°00' W 074°24'1212.0 180 / 101019.0 5.7 12.8
2017-Oct-10 10:00S 48°48' W 074°24'6 6.0 170 / 101017.7 5.7 12.8
2017-Oct-10 09:00S 48°42' W 074°24'6 6.0 190 / 181016.7 6.0 12.8
2017-Oct-10 08:00S 48°36' W 074°24'6 6.0 150 / 111015.9 5.4 12.8
2017-Oct-10 07:00S 48°30' W 074°24'6 6.0 140 / 121015.4 5.4 12.8
2017-Oct-10 06:00S 48°24' W 074°24'7 7.2 140 / 81015.0 5.7 12.8
2017-Oct-10 05:00S 48°18' W 074°30'6 6.0 140 / 51014.6 5.9 12.8
2017-Oct-10 04:00S 48°12' W 074°30'7 7.2 010 / 71014.0 6.9 12.8
2017-Oct-10 03:00S 48°06' W 074°36'6 6.0 340 / 111013.5 6.7 12.8
2017-Oct-10 02:00S 48°00' W 074°36'6 6.0 020 / 101013.2 6.9 12.8
2017-Oct-10 01:00S 47°54' W 074°36'7 7.2 010 / 91013.0 7.2 12.8
2017-Oct-10 00:00S 47°48' W 074°42'6 6.0 020 / 161012.7 7.4 12.8
2017-Oct-09 23:00S 47°42' W 074°42'7 7.2 010 / 141012.6 7.7 12.8
2017-Oct-09 22:00S 47°36' W 074°48'1414.5 320 / 121012.4 7.7 12.8
2017-Oct-09 21:00S 47°24' W 075°00'7 7.2 290 / 121012.1 7.3 12.8
2017-Oct-09 20:00S 47°18' W 075°06'1010.1 280 / 161012.1 7.1 12.8
2017-Oct-09 19:00S 47°12' W 075°18'1312.7 300 / 111012.2 8.0 12.8
2017-Oct-09 18:00S 47°00' W 075°24'7 7.3 270 / 111012.5 7.7 12.8
2017-Oct-09 17:00S 46°54' W 075°30'7 7.3 290 / 151012.8 8.3 12.8
2017-Oct-09 16:00S 46°48' W 075°36'1212.0 290 / 101013.6 7.5 12.8
2017-Oct-09 15:00S 46°36' W 075°36'6 6.0 270 / 111013.8 7.6 12.8
2017-Oct-09 14:00S 46°30' W 075°36'7 7.3 250 / 161013.8 7.1 12.8
2017-Oct-09 13:00S 46°24' W 075°30'1312.7 260 / 211013.6 8.0 12.8
2017-Oct-09 12:00S 46°12' W 075°24'7 7.3 270 / 191013.8 8.5 12.8
2017-Oct-09 11:00S 46°06' W 075°18'7 7.3 260 / 191013.7 8.4 12.8
2017-Oct-09 10:00S 46°00' W 075°12'7 7.3 260 / 191013.7 7.8 12.8
2017-Oct-09 09:00S 45°54' W 075°06'7 7.3 250 / 221013.7 8.3 12.8
2017-Oct-09 08:00S 45°48' W 075°00'8 8.4 250 / 271013.5 8.2 12.8
2017-Oct-09 07:00S 45°48' W 074°48'1312.5 270 / 231013.3 8.2 12.8
2017-Oct-09 06:00S 45°48' W 074°30'1010.3 250 / 191013.3 7.6 12.8
2017-Oct-09 05:00S 45°42' W 074°18'4 4.2 300 / 81013.3 7.1 12.8
2017-Oct-09 04:00S 45°42' W 074°12'1312.7 300 / 61013.6 6.5 12.8
2017-Oct-09 03:00S 45°30' W 074°06'7 7.3 280 / 41013.6 7.3 12.8
2017-Oct-09 02:00S 45°24' W 074°12'8 8.4 260 / 91013.7 7.5 12.8
2017-Oct-09 01:00S 45°24' W 074°00'1312.6 270 / 61013.4 6.8 12.8
2017-Oct-09 00:00S 45°24' W 073°42'1312.7 080 / 41013.2 6.2 12.8
2017-Oct-08 23:00S 45°12' W 073°36'   070 / 61012.7 6.5 12.8

Dump ship's entire track history